sensor_id;sensor_type;location;lat;lon;timestamp;P1;durP1;ratioP1;P2;durP2;ratioP2
38935;SDS011;25541;47.458;9.644;2022-10-01T03:03:06;2.78;;;0.47;;
38935;SDS011;25541;47.458;9.644;2022-10-01T03:05:32;1.63;;;0.40;;
38935;SDS011;25541;47.458;9.644;2022-10-01T03:07:57;3.85;;;0.38;;
38935;SDS011;25541;47.458;9.644;2022-10-01T03:10:23;3.38;;;0.30;;
38935;SDS011;25541;47.458;9.644;2022-10-01T03:12:49;1.23;;;0.25;;
38935;SDS011;25541;47.458;9.644;2022-10-01T03:15:15;1.73;;;0.40;;
38935;SDS011;25541;47.458;9.644;2022-10-01T03:17:43;1.20;;;0.30;;
38935;SDS011;25541;47.458;9.644;2022-10-01T03:20:09;1.88;;;0.30;;
38935;SDS011;25541;47.458;9.644;2022-10-01T03:22:36;1.10;;;0.30;;
38935;SDS011;25541;47.458;9.644;2022-10-01T03:25:02;3.05;;;0.40;;
38935;SDS011;25541;47.458;9.644;2022-10-01T03:27:29;1.55;;;0.35;;
38935;SDS011;25541;47.458;9.644;2022-10-01T03:29:54;0.98;;;0.20;;
38935;SDS011;25541;47.458;9.644;2022-10-01T03:32:20;1.23;;;0.30;;
38935;SDS011;25541;47.458;9.644;2022-10-01T03:34:46;2.40;;;0.40;;
38935;SDS011;25541;47.458;9.644;2022-10-01T03:37:12;1.23;;;0.20;;
38935;SDS011;25541;47.458;9.644;2022-10-01T03:39:38;1.65;;;0.30;;
38935;SDS011;25541;47.458;9.644;2022-10-01T03:42:03;1.17;;;0.20;;
38935;SDS011;25541;47.458;9.644;2022-10-01T03:44:29;1.20;;;0.20;;
38935;SDS011;25541;47.458;9.644;2022-10-01T03:46:55;1.38;;;0.30;;
38935;SDS011;25541;47.458;9.644;2022-10-01T03:49:21;1.30;;;0.30;;
38935;SDS011;25541;47.458;9.644;2022-10-01T03:51:47;1.10;;;0.30;;
38935;SDS011;25541;47.458;9.644;2022-10-01T03:54:13;2.38;;;0.20;;
38935;SDS011;25541;47.458;9.644;2022-10-01T03:56:39;1.23;;;0.30;;
38935;SDS011;25541;47.458;9.644;2022-10-01T03:59:07;4.00;;;0.20;;
38935;SDS011;25541;47.458;9.644;2022-10-01T04:01:33;1.00;;;0.20;;
38935;SDS011;25541;47.458;9.644;2022-10-01T04:03:59;1.88;;;0.20;;
38935;SDS011;25541;47.458;9.644;2022-10-01T04:06:25;0.95;;;0.20;;
38935;SDS011;25541;47.458;9.644;2022-10-01T04:08:51;1.77;;;0.28;;
38935;SDS011;25541;47.458;9.644;2022-10-01T04:11:16;0.98;;;0.20;;
38935;SDS011;25541;47.458;9.644;2022-10-01T04:13:42;0.90;;;0.28;;
38935;SDS011;25541;47.458;9.644;2022-10-01T04:16:08;1.58;;;0.50;;
38935;SDS011;25541;47.458;9.644;2022-10-01T04:18:34;1.17;;;0.20;;
38935;SDS011;25541;47.458;9.644;2022-10-01T04:21:01;1.17;;;0.20;;
38935;SDS011;25541;47.458;9.644;2022-10-01T04:23:26;1.75;;;0.30;;
38935;SDS011;25541;47.458;9.644;2022-10-01T04:25:52;0.82;;;0.20;;
38935;SDS011;25541;47.458;9.644;2022-10-01T04:28:18;1.02;;;0.30;;
38935;SDS011;25541;47.458;9.644;2022-10-01T04:30:44;1.55;;;0.32;;
38935;SDS011;25541;47.458;9.644;2022-10-01T04:33:11;1.30;;;0.30;;
38935;SDS011;25541;47.458;9.644;2022-10-01T04:35:38;2.85;;;0.30;;
38935;SDS011;25541;47.458;9.644;2022-10-01T04:38:05;1.88;;;0.40;;
38935;SDS011;25541;47.458;9.644;2022-10-01T04:40:39;4.03;;;0.43;;
38935;SDS011;25541;47.458;9.644;2022-10-01T04:43:05;1.85;;;0.22;;
38935;SDS011;25541;47.458;9.644;2022-10-01T04:45:34;2.05;;;0.50;;
38935;SDS011;25541;47.458;9.644;2022-10-01T04:48:01;1.73;;;0.30;;
38935;SDS011;25541;47.458;9.644;2022-10-01T04:50:27;2.10;;;0.40;;
38935;SDS011;25541;47.458;9.644;2022-10-01T04:52:53;5.63;;;0.30;;
38935;SDS011;25541;47.458;9.644;2022-10-01T04:55:19;2.60;;;0.40;;
38935;SDS011;25541;47.458;9.644;2022-10-01T04:57:45;4.25;;;0.35;;
38935;SDS011;25541;47.458;9.644;2022-10-01T05:00:13;3.65;;;0.32;;
38935;SDS011;25541;47.458;9.644;2022-10-01T05:02:44;1.40;;;0.50;;
38935;SDS011;25541;47.458;9.644;2022-10-01T05:05:11;1.80;;;0.20;;
38935;SDS011;25541;47.458;9.644;2022-10-01T05:07:37;3.05;;;0.20;;
38935;SDS011;25541;47.458;9.644;2022-10-01T05:10:04;1.00;;;0.20;;
38935;SDS011;25541;47.458;9.644;2022-10-01T05:12:35;2.67;;;0.20;;
38935;SDS011;25541;47.458;9.644;2022-10-01T05:15:01;1.80;;;0.20;;
38935;SDS011;25541;47.458;9.644;2022-10-01T05:17:27;1.90;;;0.30;;
38935;SDS011;25541;47.458;9.644;2022-10-01T05:19:56;1.40;;;0.22;;
38935;SDS011;25541;47.458;9.644;2022-10-01T05:22:22;2.58;;;0.20;;
38935;SDS011;25541;47.458;9.644;2022-10-01T05:24:48;0.80;;;0.20;;
38935;SDS011;25541;47.458;9.644;2022-10-01T05:27:14;1.77;;;0.30;;
38935;SDS011;25541;47.458;9.644;2022-10-01T05:29:39;1.50;;;0.20;;
38935;SDS011;25541;47.458;9.644;2022-10-01T05:32:09;2.95;;;0.30;;
38935;SDS011;25541;47.458;9.644;2022-10-01T05:37:02;4.60;;;0.30;;
38935;SDS011;25541;47.458;9.644;2022-10-01T05:39:28;1.83;;;0.20;;
38935;SDS011;25541;47.458;9.644;2022-10-01T05:41:55;2.83;;;0.20;;
38935;SDS011;25541;47.458;9.644;2022-10-01T05:44:22;4.40;;;0.47;;
38935;SDS011;25541;47.458;9.644;2022-10-01T05:46:48;2.90;;;0.65;;
38935;SDS011;25541;47.458;9.644;2022-10-01T05:49:14;1.60;;;0.47;;
38935;SDS011;25541;47.458;9.644;2022-10-01T05:51:41;2.35;;;0.43;;
38935;SDS011;25541;47.458;9.644;2022-10-01T05:54:07;2.20;;;0.40;;
38935;SDS011;25541;47.458;9.644;2022-10-01T05:56:33;4.50;;;0.70;;
38935;SDS011;25541;47.458;9.644;2022-10-01T05:58:59;4.03;;;0.68;;
38935;SDS011;25541;47.458;9.644;2022-10-01T06:01:25;3.47;;;0.70;;
38935;SDS011;25541;47.458;9.644;2022-10-01T06:03:52;3.28;;;0.75;;
38935;SDS011;25541;47.458;9.644;2022-10-01T06:06:21;1.83;;;0.60;;
38935;SDS011;25541;47.458;9.644;2022-10-01T06:08:47;2.75;;;0.90;;
38935;SDS011;25541;47.458;9.644;2022-10-01T06:11:13;4.20;;;0.65;;
38935;SDS011;25541;47.458;9.644;2022-10-01T06:13:40;2.28;;;0.50;;
38935;SDS011;25541;47.458;9.644;2022-10-01T06:16:09;1.75;;;0.40;;
38935;SDS011;25541;47.458;9.644;2022-10-01T06:18:35;2.08;;;0.50;;
38935;SDS011;25541;47.458;9.644;2022-10-01T06:21:01;0.95;;;0.20;;
38935;SDS011;25541;47.458;9.644;2022-10-01T06:23:27;2.10;;;0.20;;
38935;SDS011;25541;47.458;9.644;2022-10-01T06:25:52;2.25;;;0.10;;
38935;SDS011;25541;47.458;9.644;2022-10-01T06:28:18;0.73;;;0.20;;
38935;SDS011;25541;47.458;9.644;2022-10-01T06:30:44;0.77;;;0.20;;
38935;SDS011;25541;47.458;9.644;2022-10-01T06:33:11;2.22;;;0.30;;
38935;SDS011;25541;47.458;9.644;2022-10-01T06:35:42;1.13;;;0.28;;
38935;SDS011;25541;47.458;9.644;2022-10-01T06:38:12;0.80;;;0.10;;
38935;SDS011;25541;47.458;9.644;2022-10-01T06:40:39;2.78;;;0.30;;
38935;SDS011;25541;47.458;9.644;2022-10-01T06:43:06;2.15;;;0.50;;
38935;SDS011;25541;47.458;9.644;2022-10-01T06:45:34;2.60;;;0.30;;
38935;SDS011;25541;47.458;9.644;2022-10-01T06:48:02;0.88;;;0.17;;
38935;SDS011;25541;47.458;9.644;2022-10-01T06:50:32;1.30;;;0.30;;
38935;SDS011;25541;47.458;9.644;2022-10-01T06:52:59;2.08;;;0.40;;
38935;SDS011;25541;47.458;9.644;2022-10-01T06:55:30;1.55;;;0.40;;
38935;SDS011;25541;47.458;9.644;2022-10-01T06:57:58;4.97;;;0.40;;
38935;SDS011;25541;47.458;9.644;2022-10-01T07:00:33;2.33;;;0.50;;
38935;SDS011;25541;47.458;9.644;2022-10-01T07:03:00;2.38;;;0.55;;
38935;SDS011;25541;47.458;9.644;2022-10-01T07:05:27;1.25;;;0.32;;
38935;SDS011;25541;47.458;9.644;2022-10-01T07:07:54;1.85;;;0.30;;
38935;SDS011;25541;47.458;9.644;2022-10-01T07:10:20;1.90;;;0.10;;
38935;SDS011;25541;47.458;9.644;2022-10-01T07:12:47;1.75;;;0.20;;
38935;SDS011;25541;47.458;9.644;2022-10-01T07:15:14;1.60;;;0.40;;
38935;SDS011;25541;47.458;9.644;2022-10-01T07:17:42;1.15;;;0.20;;
38935;SDS011;25541;47.458;9.644;2022-10-01T07:20:09;1.27;;;0.20;;
38935;SDS011;25541;47.458;9.644;2022-10-01T07:22:35;1.50;;;0.30;;
38935;SDS011;25541;47.458;9.644;2022-10-01T07:25:01;1.02;;;0.20;;
38935;SDS011;25541;47.458;9.644;2022-10-01T07:27:27;1.63;;;0.30;;
38935;SDS011;25541;47.458;9.644;2022-10-01T07:29:53;1.48;;;0.30;;
38935;SDS011;25541;47.458;9.644;2022-10-01T07:34:49;1.60;;;0.40;;
38935;SDS011;25541;47.458;9.644;2022-10-01T07:37:15;2.25;;;0.20;;
38935;SDS011;25541;47.458;9.644;2022-10-01T07:39:41;0.55;;;0.20;;
38935;SDS011;25541;47.458;9.644;2022-10-01T07:42:06;1.30;;;0.20;;
38935;SDS011;25541;47.458;9.644;2022-10-01T07:44:32;1.20;;;0.13;;
38935;SDS011;25541;47.458;9.644;2022-10-01T07:46:58;0.90;;;0.10;;
38935;SDS011;25541;47.458;9.644;2022-10-01T07:49:24;0.98;;;0.20;;
38935;SDS011;25541;47.458;9.644;2022-10-01T07:51:50;0.68;;;0.20;;
38935;SDS011;25541;47.458;9.644;2022-10-01T07:54:17;0.80;;;0.15;;
38935;SDS011;25541;47.458;9.644;2022-10-01T07:56:44;2.65;;;0.45;;
38935;SDS011;25541;47.458;9.644;2022-10-01T07:59:10;1.25;;;0.38;;
38935;SDS011;25541;47.458;9.644;2022-10-01T08:01:36;3.03;;;0.30;;
38935;SDS011;25541;47.458;9.644;2022-10-01T08:04:02;1.45;;;0.20;;
38935;SDS011;25541;47.458;9.644;2022-10-01T08:06:49;1.70;;;0.40;;
38935;SDS011;25541;47.458;9.644;2022-10-01T08:09:17;1.67;;;0.47;;
38935;SDS011;25541;47.458;9.644;2022-10-01T08:11:43;4.57;;;0.45;;
38935;SDS011;25541;47.458;9.644;2022-10-01T08:14:09;1.58;;;0.50;;
38935;SDS011;25541;47.458;9.644;2022-10-01T08:16:36;1.88;;;0.22;;
38935;SDS011;25541;47.458;9.644;2022-10-01T08:19:04;0.90;;;0.20;;
38935;SDS011;25541;47.458;9.644;2022-10-01T08:21:31;2.53;;;0.30;;
38935;SDS011;25541;47.458;9.644;2022-10-01T08:24:00;1.85;;;0.20;;
38935;SDS011;25541;47.458;9.644;2022-10-01T08:26:26;0.70;;;0.20;;
38935;SDS011;25541;47.458;9.644;2022-10-01T08:28:52;1.67;;;0.30;;
38935;SDS011;25541;47.458;9.644;2022-10-01T08:31:18;1.10;;;0.10;;
38935;SDS011;25541;47.458;9.644;2022-10-01T08:33:44;0.60;;;0.10;;
38935;SDS011;25541;47.458;9.644;2022-10-01T08:36:09;0.80;;;0.20;;
38935;SDS011;25541;47.458;9.644;2022-10-01T08:38:35;0.73;;;0.20;;
38935;SDS011;25541;47.458;9.644;2022-10-01T08:43:50;0.70;;;0.10;;
38935;SDS011;25541;47.458;9.644;2022-10-01T08:46:18;2.42;;;0.28;;
38935;SDS011;25541;47.458;9.644;2022-10-01T08:51:36;0.95;;;0.30;;
38935;SDS011;25541;47.458;9.644;2022-10-01T08:54:07;0.80;;;0.20;;
38935;SDS011;25541;47.458;9.644;2022-10-01T08:56:44;0.80;;;0.20;;
38935;SDS011;25541;47.458;9.644;2022-10-01T09:01:56;2.40;;;0.13;;
38935;SDS011;25541;47.458;9.644;2022-10-01T09:04:23;1.05;;;0.10;;
38935;SDS011;25541;47.458;9.644;2022-10-01T09:06:51;1.55;;;0.20;;
38935;SDS011;25541;47.458;9.644;2022-10-01T09:17:47;2.10;;;1.23;;
38935;SDS011;25541;47.458;9.644;2022-10-01T09:20:28;2.17;;;0.98;;
38935;SDS011;25541;47.458;9.644;2022-10-01T09:25:40;1.50;;;0.45;;
38935;SDS011;25541;47.458;9.644;2022-10-01T09:28:12;3.05;;;0.77;;
38935;SDS011;25541;47.458;9.644;2022-10-01T09:30:49;6.93;;;1.08;;
38935;SDS011;25541;47.458;9.644;2022-10-01T09:33:19;1.15;;;0.30;;
38935;SDS011;25541;47.458;9.644;2022-10-01T09:40:54;7.43;;;2.90;;
38935;SDS011;25541;47.458;9.644;2022-10-01T09:43:33;1.85;;;0.22;;
38935;SDS011;25541;47.458;9.644;2022-10-01T09:46:03;4.30;;;1.40;;
38935;SDS011;25541;47.458;9.644;2022-10-01T09:51:52;2.50;;;0.57;;
38935;SDS011;25541;47.458;9.644;2022-10-01T09:57:00;1.73;;;0.35;;
38935;SDS011;25541;47.458;9.644;2022-10-01T09:59:36;0.98;;;0.30;;
38935;SDS011;25541;47.458;9.644;2022-10-01T10:02:16;1.23;;;0.22;;
38935;SDS011;25541;47.458;9.644;2022-10-01T10:04:57;1.02;;;0.20;;
38935;SDS011;25541;47.458;9.644;2022-10-01T10:07:24;1.55;;;0.20;;
38935;SDS011;25541;47.458;9.644;2022-10-01T10:09:49;1.60;;;0.30;;
38935;SDS011;25541;47.458;9.644;2022-10-01T10:12:34;4.18;;;1.17;;
38935;SDS011;25541;47.458;9.644;2022-10-01T10:15:13;2.53;;;0.40;;
38935;SDS011;25541;47.458;9.644;2022-10-01T10:17:45;3.35;;;0.30;;
38935;SDS011;25541;47.458;9.644;2022-10-01T10:22:48;1.42;;;0.30;;
38935;SDS011;25541;47.458;9.644;2022-10-01T10:25:22;3.00;;;0.35;;
38935;SDS011;25541;47.458;9.644;2022-10-01T10:27:49;3.95;;;0.50;;
38935;SDS011;25541;47.458;9.644;2022-10-01T10:30:19;3.85;;;0.70;;
38935;SDS011;25541;47.458;9.644;2022-10-01T10:32:46;2.72;;;0.77;;
38935;SDS011;25541;47.458;9.644;2022-10-01T10:35:14;4.88;;;0.50;;
38935;SDS011;25541;47.458;9.644;2022-10-01T10:37:47;3.92;;;0.50;;
38935;SDS011;25541;47.458;9.644;2022-10-01T10:40:17;1.23;;;0.30;;
38935;SDS011;25541;47.458;9.644;2022-10-01T10:42:47;2.10;;;0.38;;
38935;SDS011;25541;47.458;9.644;2022-10-01T10:45:16;4.20;;;0.70;;
38935;SDS011;25541;47.458;9.644;2022-10-01T10:47:45;3.10;;;0.75;;
38935;SDS011;25541;47.458;9.644;2022-10-01T10:50:27;2.53;;;0.60;;
38935;SDS011;25541;47.458;9.644;2022-10-01T10:53:10;2.40;;;0.90;;
38935;SDS011;25541;47.458;9.644;2022-10-01T10:55:54;5.53;;;0.65;;
38935;SDS011;25541;47.458;9.644;2022-10-01T10:58:25;2.10;;;0.40;;
38935;SDS011;25541;47.458;9.644;2022-10-01T11:00:54;2.30;;;0.52;;
38935;SDS011;25541;47.458;9.644;2022-10-01T11:03:24;5.57;;;0.93;;
38935;SDS011;25541;47.458;9.644;2022-10-01T11:05:53;4.47;;;0.95;;
38935;SDS011;25541;47.458;9.644;2022-10-01T11:08:23;4.63;;;1.42;;
38935;SDS011;25541;47.458;9.644;2022-10-01T11:40:43;1.55;;;0.70;;
38935;SDS011;25541;47.458;9.644;2022-10-01T11:46:18;4.90;;;2.33;;
38935;SDS011;25541;47.458;9.644;2022-10-01T11:54:53;4.55;;;2.17;;
38935;SDS011;25541;47.458;9.644;2022-10-01T11:57:20;5.15;;;2.63;;
38935;SDS011;25541;47.458;9.644;2022-10-01T12:00:06;5.65;;;2.92;;
38935;SDS011;25541;47.458;9.644;2022-10-01T12:05:20;5.03;;;1.70;;
38935;SDS011;25541;47.458;9.644;2022-10-01T12:10:50;4.85;;;2.25;;
38935;SDS011;25541;47.458;9.644;2022-10-01T12:21:09;5.65;;;2.28;;
38935;SDS011;25541;47.458;9.644;2022-10-01T12:23:48;4.45;;;2.50;;
38935;SDS011;25541;47.458;9.644;2022-10-01T12:26:42;4.75;;;1.30;;
38935;SDS011;25541;47.458;9.644;2022-10-01T12:29:39;2.90;;;1.30;;
38935;SDS011;25541;47.458;9.644;2022-10-01T12:32:25;5.50;;;1.83;;
38935;SDS011;25541;47.458;9.644;2022-10-01T12:43:18;2.55;;;1.08;;
38935;SDS011;25541;47.458;9.644;2022-10-01T12:45:55;2.97;;;1.25;;
38935;SDS011;25541;47.458;9.644;2022-10-01T12:51:36;2.75;;;1.10;;
38935;SDS011;25541;47.458;9.644;2022-10-01T12:57:14;8.07;;;1.60;;
38935;SDS011;25541;47.458;9.644;2022-10-01T12:59:56;4.65;;;2.00;;
38935;SDS011;25541;47.458;9.644;2022-10-01T13:13:50;18.45;;;8.73;;
38935;SDS011;25541;47.458;9.644;2022-10-01T13:16:19;6.75;;;2.50;;
38935;SDS011;25541;47.458;9.644;2022-10-01T13:24:40;7.88;;;1.73;;
38935;SDS011;25541;47.458;9.644;2022-10-01T13:29:58;11.73;;;4.97;;
38935;SDS011;25541;47.458;9.644;2022-10-01T13:32:33;13.48;;;5.78;;
38935;SDS011;25541;47.458;9.644;2022-10-01T13:35:20;12.00;;;4.78;;
38935;SDS011;25541;47.458;9.644;2022-10-01T13:37:52;11.38;;;3.05;;
38935;SDS011;25541;47.458;9.644;2022-10-01T13:43:01;8.15;;;4.53;;
38935;SDS011;25541;47.458;9.644;2022-10-01T13:45:41;5.07;;;1.80;;
38935;SDS011;25541;47.458;9.644;2022-10-01T13:50:34;2.95;;;1.23;;
38935;SDS011;25541;47.458;9.644;2022-10-01T13:53:24;4.75;;;1.33;;
38935;SDS011;25541;47.458;9.644;2022-10-01T13:55:50;5.05;;;1.40;;
38935;SDS011;25541;47.458;9.644;2022-10-01T13:58:22;3.67;;;1.40;;
38935;SDS011;25541;47.458;9.644;2022-10-01T14:00:50;3.25;;;1.40;;
38935;SDS011;25541;47.458;9.644;2022-10-01T14:05:53;6.00;;;1.63;;
38935;SDS011;25541;47.458;9.644;2022-10-01T14:08:28;7.88;;;2.00;;
38935;SDS011;25541;47.458;9.644;2022-10-01T14:14:01;4.15;;;1.70;;
38935;SDS011;25541;47.458;9.644;2022-10-01T14:17:14;5.38;;;1.65;;
38935;SDS011;25541;47.458;9.644;2022-10-01T14:19:46;5.22;;;1.42;;
38935;SDS011;25541;47.458;9.644;2022-10-01T14:30:05;3.88;;;1.70;;
38935;SDS011;25541;47.458;9.644;2022-10-01T14:35:38;3.67;;;1.73;;
38935;SDS011;25541;47.458;9.644;2022-10-01T14:38:22;4.03;;;1.52;;
38935;SDS011;25541;47.458;9.644;2022-10-01T14:40:48;5.13;;;1.50;;
38935;SDS011;25541;47.458;9.644;2022-10-01T14:43:16;4.82;;;1.70;;
38935;SDS011;25541;47.458;9.644;2022-10-01T14:45:53;5.10;;;1.90;;
38935;SDS011;25541;47.458;9.644;2022-10-01T14:48:24;4.72;;;1.45;;
38935;SDS011;25541;47.458;9.644;2022-10-01T14:50:54;3.65;;;1.25;;
38935;SDS011;25541;47.458;9.644;2022-10-01T14:53:24;4.55;;;1.80;;
38935;SDS011;25541;47.458;9.644;2022-10-01T14:55:52;6.32;;;1.90;;
38935;SDS011;25541;47.458;9.644;2022-10-01T14:58:26;5.90;;;2.05;;
38935;SDS011;25541;47.458;9.644;2022-10-01T15:00:55;4.65;;;1.50;;
38935;SDS011;25541;47.458;9.644;2022-10-01T15:03:22;4.57;;;2.17;;
38935;SDS011;25541;47.458;9.644;2022-10-01T15:05:48;3.53;;;1.52;;
38935;SDS011;25541;47.458;9.644;2022-10-01T15:08:16;5.80;;;1.75;;
38935;SDS011;25541;47.458;9.644;2022-10-01T15:11:01;5.10;;;2.17;;
38935;SDS011;25541;47.458;9.644;2022-10-01T15:13:36;4.60;;;1.60;;
38935;SDS011;25541;47.458;9.644;2022-10-01T15:16:09;5.72;;;2.47;;
38935;SDS011;25541;47.458;9.644;2022-10-01T15:18:41;4.50;;;2.10;;
38935;SDS011;25541;47.458;9.644;2022-10-01T15:21:18;4.22;;;2.00;;
38935;SDS011;25541;47.458;9.644;2022-10-01T15:24:17;4.22;;;2.03;;
38935;SDS011;25541;47.458;9.644;2022-10-01T15:26:45;4.55;;;2.10;;
38935;SDS011;25541;47.458;9.644;2022-10-01T15:29:12;7.93;;;2.42;;
38935;SDS011;25541;47.458;9.644;2022-10-01T15:31:40;5.50;;;2.35;;
38935;SDS011;25541;47.458;9.644;2022-10-01T15:34:13;7.50;;;2.80;;
38935;SDS011;25541;47.458;9.644;2022-10-01T15:39:41;4.72;;;2.05;;
38935;SDS011;25541;47.458;9.644;2022-10-01T15:42:22;5.88;;;2.25;;
38935;SDS011;25541;47.458;9.644;2022-10-01T15:44:50;4.72;;;2.50;;
38935;SDS011;25541;47.458;9.644;2022-10-01T15:47:35;3.38;;;1.92;;
38935;SDS011;25541;47.458;9.644;2022-10-01T15:53:19;6.35;;;2.53;;
38935;SDS011;25541;47.458;9.644;2022-10-01T15:58:14;8.82;;;2.67;;
38935;SDS011;25541;47.458;9.644;2022-10-01T16:03:23;6.65;;;2.60;;
38935;SDS011;25541;47.458;9.644;2022-10-01T16:11:25;5.00;;;2.95;;
38935;SDS011;25541;47.458;9.644;2022-10-01T16:16:45;8.35;;;3.45;;
38935;SDS011;25541;47.458;9.644;2022-10-01T16:19:27;6.93;;;3.22;;
38935;SDS011;25541;47.458;9.644;2022-10-01T16:24:49;4.40;;;2.22;;
38935;SDS011;25541;47.458;9.644;2022-10-01T16:27:21;5.47;;;2.50;;
38935;SDS011;25541;47.458;9.644;2022-10-01T16:29:51;5.20;;;2.40;;
38935;SDS011;25541;47.458;9.644;2022-10-01T16:32:20;3.70;;;1.60;;
38935;SDS011;25541;47.458;9.644;2022-10-01T16:34:45;4.88;;;1.88;;
38935;SDS011;25541;47.458;9.644;2022-10-01T16:37:11;4.13;;;2.13;;
38935;SDS011;25541;47.458;9.644;2022-10-01T16:39:37;4.30;;;2.05;;
38935;SDS011;25541;47.458;9.644;2022-10-01T16:42:03;4.63;;;2.20;;
38935;SDS011;25541;47.458;9.644;2022-10-01T16:44:29;3.78;;;2.03;;
38935;SDS011;25541;47.458;9.644;2022-10-01T16:47:02;4.88;;;2.03;;
38935;SDS011;25541;47.458;9.644;2022-10-01T16:49:28;4.90;;;2.75;;
38935;SDS011;25541;47.458;9.644;2022-10-01T16:51:54;5.93;;;2.78;;
38935;SDS011;25541;47.458;9.644;2022-10-01T16:54:21;5.25;;;2.50;;
38935;SDS011;25541;47.458;9.644;2022-10-01T16:56:49;6.28;;;2.25;;
38935;SDS011;25541;47.458;9.644;2022-10-01T16:59:15;3.13;;;1.20;;
38935;SDS011;25541;47.458;9.644;2022-10-01T17:01:41;3.67;;;1.45;;
38935;SDS011;25541;47.458;9.644;2022-10-01T17:04:11;5.72;;;1.77;;
38935;SDS011;25541;47.458;9.644;2022-10-01T17:06:40;4.43;;;1.65;;
38935;SDS011;25541;47.458;9.644;2022-10-01T17:09:06;6.32;;;1.88;;
38935;SDS011;25541;47.458;9.644;2022-10-01T17:11:32;7.18;;;3.30;;
38935;SDS011;25541;47.458;9.644;2022-10-01T17:13:59;5.25;;;2.00;;
38935;SDS011;25541;47.458;9.644;2022-10-01T17:16:27;5.72;;;3.08;;
38935;SDS011;25541;47.458;9.644;2022-10-01T17:18:53;7.93;;;2.70;;
38935;SDS011;25541;47.458;9.644;2022-10-01T17:21:19;4.95;;;2.13;;
38935;SDS011;25541;47.458;9.644;2022-10-01T17:23:45;5.53;;;1.80;;
38935;SDS011;25541;47.458;9.644;2022-10-01T17:26:10;6.25;;;1.95;;
38935;SDS011;25541;47.458;9.644;2022-10-01T17:28:36;2.28;;;0.90;;
38935;SDS011;25541;47.458;9.644;2022-10-01T17:31:04;3.90;;;1.20;;
38935;SDS011;25541;47.458;9.644;2022-10-01T17:33:31;2.75;;;0.80;;
38935;SDS011;25541;47.458;9.644;2022-10-01T17:35:57;3.05;;;0.82;;
38935;SDS011;25541;47.458;9.644;2022-10-01T17:38:22;1.65;;;0.40;;
38935;SDS011;25541;47.458;9.644;2022-10-01T17:40:48;3.72;;;1.30;;
38935;SDS011;25541;47.458;9.644;2022-10-01T17:43:15;4.93;;;1.05;;
38935;SDS011;25541;47.458;9.644;2022-10-01T17:45:42;3.28;;;1.17;;
38935;SDS011;25541;47.458;9.644;2022-10-01T17:48:11;2.40;;;0.55;;
38935;SDS011;25541;47.458;9.644;2022-10-01T17:50:37;2.83;;;0.70;;
38935;SDS011;25541;47.458;9.644;2022-10-01T17:53:07;2.92;;;0.90;;
38935;SDS011;25541;47.458;9.644;2022-10-01T17:55:33;3.47;;;1.20;;
38935;SDS011;25541;47.458;9.644;2022-10-01T17:58:03;3.03;;;1.25;;
38935;SDS011;25541;47.458;9.644;2022-10-01T18:00:30;4.78;;;1.48;;
38935;SDS011;25541;47.458;9.644;2022-10-01T18:02:56;4.32;;;1.23;;
38935;SDS011;25541;47.458;9.644;2022-10-01T18:05:25;2.63;;;1.20;;
38935;SDS011;25541;47.458;9.644;2022-10-01T18:07:51;4.35;;;1.42;;
38935;SDS011;25541;47.458;9.644;2022-10-01T18:10:17;3.85;;;1.48;;
38935;SDS011;25541;47.458;9.644;2022-10-01T18:12:42;5.32;;;1.90;;
38935;SDS011;25541;47.458;9.644;2022-10-01T18:15:08;2.47;;;1.30;;
38935;SDS011;25541;47.458;9.644;2022-10-01T18:17:35;2.45;;;1.02;;
38935;SDS011;25541;47.458;9.644;2022-10-01T18:20:03;2.97;;;1.00;;
38935;SDS011;25541;47.458;9.644;2022-10-01T18:22:30;2.00;;;0.82;;
38935;SDS011;25541;47.458;9.644;2022-10-01T18:24:56;2.17;;;0.90;;
38935;SDS011;25541;47.458;9.644;2022-10-01T18:27:22;2.03;;;0.80;;
38935;SDS011;25541;47.458;9.644;2022-10-01T18:29:47;2.08;;;0.52;;
38935;SDS011;25541;47.458;9.644;2022-10-01T18:32:21;2.78;;;0.55;;
38935;SDS011;25541;47.458;9.644;2022-10-01T18:34:53;1.67;;;0.88;;
38935;SDS011;25541;47.458;9.644;2022-10-01T18:37:38;2.85;;;0.85;;
38935;SDS011;25541;47.458;9.644;2022-10-01T18:58:55;2.92;;;1.02;;
38935;SDS011;25541;47.458;9.644;2022-10-01T19:33:54;1.38;;;0.55;;
38935;SDS011;25541;47.458;9.644;2022-10-01T19:36:26;1.38;;;0.43;;
38935;SDS011;25541;47.458;9.644;2022-10-01T19:38:57;1.20;;;0.30;;
38935;SDS011;25541;47.458;9.644;2022-10-01T19:41:33;1.60;;;0.60;;
38935;SDS011;25541;47.458;9.644;2022-10-01T19:44:49;2.00;;;0.90;;
38935;SDS011;25541;47.458;9.644;2022-10-01T19:47:08;1.67;;;0.43;;
38935;SDS011;25541;47.458;9.644;2022-10-01T19:49:45;2.40;;;0.70;;
38935;SDS011;25541;47.458;9.644;2022-10-01T19:52:14;2.95;;;0.30;;
38935;SDS011;25541;47.458;9.644;2022-10-01T19:54:51;1.40;;;0.40;;
38935;SDS011;25541;47.458;9.644;2022-10-01T19:57:28;1.17;;;0.47;;
38935;SDS011;25541;47.458;9.644;2022-10-01T19:59:56;2.25;;;0.57;;
38935;SDS011;25541;47.458;9.644;2022-10-01T20:05:06;1.20;;;0.40;;
38935;SDS011;25541;47.458;9.644;2022-10-01T20:11:04;0.95;;;0.30;;
38935;SDS011;25541;47.458;9.644;2022-10-01T20:16:07;0.65;;;0.30;;
38935;SDS011;25541;47.458;9.644;2022-10-01T20:27:08;5.03;;;2.50;;
38935;SDS011;25541;47.458;9.644;2022-10-01T20:29:47;4.05;;;2.03;;
38935;SDS011;25541;47.458;9.644;2022-10-01T20:35:15;3.22;;;1.40;;
38935;SDS011;25541;47.458;9.644;2022-10-01T20:37:52;4.85;;;1.42;;
38935;SDS011;25541;47.458;9.644;2022-10-01T20:45:35;1.70;;;0.60;;
38935;SDS011;25541;47.458;9.644;2022-10-01T20:48:08;1.35;;;0.40;;
38935;SDS011;25541;47.458;9.644;2022-10-01T20:54:20;2.70;;;0.43;;
38935;SDS011;25541;47.458;9.644;2022-10-01T20:56:59;1.80;;;0.20;;
38935;SDS011;25541;47.458;9.644;2022-10-01T20:59:41;1.42;;;0.45;;
38935;SDS011;25541;47.458;9.644;2022-10-01T21:04:55;0.63;;;0.20;;
38935;SDS011;25541;47.458;9.644;2022-10-01T21:08:30;1.27;;;0.30;;
38935;SDS011;25541;47.458;9.644;2022-10-01T21:10:33;1.00;;;0.30;;
38935;SDS011;25541;47.458;9.644;2022-10-01T21:16:10;1.23;;;0.10;;
38935;SDS011;25541;47.458;9.644;2022-10-01T21:18:52;1.67;;;0.50;;
38935;SDS011;25541;47.458;9.644;2022-10-01T21:34:29;0.73;;;0.20;;
38935;SDS011;25541;47.458;9.644;2022-10-01T21:37:13;2.60;;;0.28;;
38935;SDS011;25541;47.458;9.644;2022-10-01T21:39:51;1.17;;;0.20;;
38935;SDS011;25541;47.458;9.644;2022-10-01T21:42:58;1.05;;;0.20;;
38935;SDS011;25541;47.458;9.644;2022-10-01T21:51:22;3.53;;;0.55;;
38935;SDS011;25541;47.458;9.644;2022-10-01T21:57:03;1.48;;;0.40;;
